sensor_id;sensor_type;location;lat;lon;timestamp;P1;durP1;ratioP1;P2;durP2;ratioP2
65238;SDS011;51827;51.186;6.926;2022-09-09T00:00:16;1.27;;;0.85;;
65238;SDS011;51827;51.186;6.926;2022-09-09T00:03:31;2.53;;;1.08;;
65238;SDS011;51827;51.186;6.926;2022-09-09T00:05:44;3.28;;;1.00;;
65238;SDS011;51827;51.186;6.926;2022-09-09T00:08:51;2.45;;;1.02;;
65238;SDS011;51827;51.186;6.926;2022-09-09T00:11:33;4.18;;;1.00;;
65238;SDS011;51827;51.186;6.926;2022-09-09T00:12:37;2.28;;;0.80;;
65238;SDS011;51827;51.186;6.926;2022-09-09T00:13:52;2.70;;;0.90;;
65238;SDS011;51827;51.186;6.926;2022-09-09T00:15:02;3.35;;;0.90;;
65238;SDS011;51827;51.186;6.926;2022-09-09T00:16:19;3.45;;;0.90;;
65238;SDS011;51827;51.186;6.926;2022-09-09T00:20:03;2.45;;;0.90;;
65238;SDS011;51827;51.186;6.926;2022-09-09T00:21:09;1.75;;;1.05;;
65238;SDS011;51827;51.186;6.926;2022-09-09T00:22:15;2.33;;;0.90;;
65238;SDS011;51827;51.186;6.926;2022-09-09T00:23:32;4.22;;;1.20;;
65238;SDS011;51827;51.186;6.926;2022-09-09T00:24:54;2.22;;;0.80;;
65238;SDS011;51827;51.186;6.926;2022-09-09T00:27:04;1.52;;;1.00;;
65238;SDS011;51827;51.186;6.926;2022-09-09T00:28:23;3.13;;;1.10;;
65238;SDS011;51827;51.186;6.926;2022-09-09T00:29:28;2.20;;;1.00;;
65238;SDS011;51827;51.186;6.926;2022-09-09T00:30:35;2.22;;;1.10;;
65238;SDS011;51827;51.186;6.926;2022-09-09T00:31:36;3.05;;;0.98;;
65238;SDS011;51827;51.186;6.926;2022-09-09T00:32:36;3.43;;;0.90;;
65238;SDS011;51827;51.186;6.926;2022-09-09T00:33:37;2.03;;;0.80;;
65238;SDS011;51827;51.186;6.926;2022-09-09T00:34:39;4.47;;;1.08;;
65238;SDS011;51827;51.186;6.926;2022-09-09T00:35:47;2.60;;;1.10;;
65238;SDS011;51827;51.186;6.926;2022-09-09T00:36:50;2.80;;;0.70;;
65238;SDS011;51827;51.186;6.926;2022-09-09T00:38:03;3.00;;;0.88;;
65238;SDS011;51827;51.186;6.926;2022-09-09T00:39:57;3.45;;;1.00;;
65238;SDS011;51827;51.186;6.926;2022-09-09T00:41:08;2.70;;;1.00;;
65238;SDS011;51827;51.186;6.926;2022-09-09T00:42:25;4.10;;;0.80;;
65238;SDS011;51827;51.186;6.926;2022-09-09T00:43:32;2.60;;;1.02;;
65238;SDS011;51827;51.186;6.926;2022-09-09T00:44:38;2.55;;;1.05;;
65238;SDS011;51827;51.186;6.926;2022-09-09T00:51:53;5.05;;;0.90;;
65238;SDS011;51827;51.186;6.926;2022-09-09T00:54:34;1.83;;;0.80;;
65238;SDS011;51827;51.186;6.926;2022-09-09T00:55:42;6.00;;;0.90;;
65238;SDS011;51827;51.186;6.926;2022-09-09T00:56:54;3.13;;;0.98;;
65238;SDS011;51827;51.186;6.926;2022-09-09T00:58:22;2.28;;;0.80;;
65238;SDS011;51827;51.186;6.926;2022-09-09T01:01:01;1.95;;;0.80;;
65238;SDS011;51827;51.186;6.926;2022-09-09T01:03:42;2.28;;;0.82;;
65238;SDS011;51827;51.186;6.926;2022-09-09T01:04:51;2.53;;;1.00;;
65238;SDS011;51827;51.186;6.926;2022-09-09T01:06:13;1.10;;;0.80;;
65238;SDS011;51827;51.186;6.926;2022-09-09T01:07:17;2.60;;;1.10;;
65238;SDS011;51827;51.186;6.926;2022-09-09T01:09:44;1.20;;;0.85;;
65238;SDS011;51827;51.186;6.926;2022-09-09T01:10:52;1.42;;;0.80;;
65238;SDS011;51827;51.186;6.926;2022-09-09T01:12:12;2.38;;;0.93;;
65238;SDS011;51827;51.186;6.926;2022-09-09T01:13:33;2.45;;;0.85;;
65238;SDS011;51827;51.186;6.926;2022-09-09T01:15:36;3.10;;;0.90;;
65238;SDS011;51827;51.186;6.926;2022-09-09T01:16:39;2.13;;;0.90;;
65238;SDS011;51827;51.186;6.926;2022-09-09T01:18:53;2.50;;;1.05;;
65238;SDS011;51827;51.186;6.926;2022-09-09T01:20:03;1.90;;;0.90;;
65238;SDS011;51827;51.186;6.926;2022-09-09T01:26:35;2.10;;;0.93;;
65238;SDS011;51827;51.186;6.926;2022-09-09T01:27:41;3.00;;;1.17;;
65238;SDS011;51827;51.186;6.926;2022-09-09T01:28:44;1.65;;;0.90;;
65238;SDS011;51827;51.186;6.926;2022-09-09T01:29:46;5.30;;;1.23;;
65238;SDS011;51827;51.186;6.926;2022-09-09T01:30:47;1.70;;;1.00;;
65238;SDS011;51827;51.186;6.926;2022-09-09T01:31:55;1.70;;;0.80;;
65238;SDS011;51827;51.186;6.926;2022-09-09T01:32:56;1.38;;;0.88;;
65238;SDS011;51827;51.186;6.926;2022-09-09T01:33:57;1.48;;;0.90;;
65238;SDS011;51827;51.186;6.926;2022-09-09T01:34:58;2.70;;;1.00;;
65238;SDS011;51827;51.186;6.926;2022-09-09T01:36:06;2.07;;;0.90;;
65238;SDS011;51827;51.186;6.926;2022-09-09T01:37:16;2.33;;;0.98;;
65238;SDS011;51827;51.186;6.926;2022-09-09T01:38:17;2.97;;;1.00;;
65238;SDS011;51827;51.186;6.926;2022-09-09T01:39:18;5.00;;;1.15;;
65238;SDS011;51827;51.186;6.926;2022-09-09T01:40:19;3.65;;;1.17;;
65238;SDS011;51827;51.186;6.926;2022-09-09T01:41:20;3.58;;;0.90;;
65238;SDS011;51827;51.186;6.926;2022-09-09T01:42:20;4.20;;;1.00;;
65238;SDS011;51827;51.186;6.926;2022-09-09T01:43:24;1.92;;;1.17;;
65238;SDS011;51827;51.186;6.926;2022-09-09T01:44:25;2.75;;;0.90;;
65238;SDS011;51827;51.186;6.926;2022-09-09T01:46:30;1.70;;;1.07;;
65238;SDS011;51827;51.186;6.926;2022-09-09T01:47:30;2.22;;;1.10;;
65238;SDS011;51827;51.186;6.926;2022-09-09T01:48:33;2.00;;;0.95;;
65238;SDS011;51827;51.186;6.926;2022-09-09T01:49:34;2.73;;;0.87;;
65238;SDS011;51827;51.186;6.926;2022-09-09T01:50:34;1.52;;;1.00;;
65238;SDS011;51827;51.186;6.926;2022-09-09T01:51:35;3.43;;;1.10;;
65238;SDS011;51827;51.186;6.926;2022-09-09T01:52:38;2.13;;;0.82;;
65238;SDS011;51827;51.186;6.926;2022-09-09T01:53:39;3.60;;;1.00;;
65238;SDS011;51827;51.186;6.926;2022-09-09T01:54:44;1.73;;;0.90;;
65238;SDS011;51827;51.186;6.926;2022-09-09T01:55:52;3.22;;;1.10;;
65238;SDS011;51827;51.186;6.926;2022-09-09T01:59:34;2.47;;;1.00;;
65238;SDS011;51827;51.186;6.926;2022-09-09T02:02:10;1.85;;;0.90;;
65238;SDS011;51827;51.186;6.926;2022-09-09T02:04:26;2.30;;;1.00;;
65238;SDS011;51827;51.186;6.926;2022-09-09T02:06:39;3.22;;;1.05;;
65238;SDS011;51827;51.186;6.926;2022-09-09T02:07:41;1.80;;;1.00;;
65238;SDS011;51827;51.186;6.926;2022-09-09T02:08:47;2.55;;;1.00;;
65238;SDS011;51827;51.186;6.926;2022-09-09T02:09:50;1.88;;;1.00;;
65238;SDS011;51827;51.186;6.926;2022-09-09T02:11:16;2.78;;;0.90;;
65238;SDS011;51827;51.186;6.926;2022-09-09T02:12:21;2.80;;;1.20;;
65238;SDS011;51827;51.186;6.926;2022-09-09T02:13:24;2.53;;;1.10;;
65238;SDS011;51827;51.186;6.926;2022-09-09T02:14:26;1.40;;;0.90;;
65238;SDS011;51827;51.186;6.926;2022-09-09T02:15:32;3.22;;;1.05;;
65238;SDS011;51827;51.186;6.926;2022-09-09T02:16:50;2.60;;;1.08;;
65238;SDS011;51827;51.186;6.926;2022-09-09T02:17:55;5.28;;;1.13;;
65238;SDS011;51827;51.186;6.926;2022-09-09T02:19:14;3.40;;;0.90;;
65238;SDS011;51827;51.186;6.926;2022-09-09T02:20:19;3.92;;;1.00;;
65238;SDS011;51827;51.186;6.926;2022-09-09T02:21:22;2.22;;;1.00;;
65238;SDS011;51827;51.186;6.926;2022-09-09T02:22:25;3.55;;;1.00;;
65238;SDS011;51827;51.186;6.926;2022-09-09T02:23:27;3.17;;;1.20;;
65238;SDS011;51827;51.186;6.926;2022-09-09T02:24:29;2.08;;;1.00;;
65238;SDS011;51827;51.186;6.926;2022-09-09T02:25:33;2.47;;;1.00;;
65238;SDS011;51827;51.186;6.926;2022-09-09T02:26:37;1.75;;;0.95;;
65238;SDS011;51827;51.186;6.926;2022-09-09T02:27:41;3.22;;;1.13;;
65238;SDS011;51827;51.186;6.926;2022-09-09T02:28:45;4.32;;;1.02;;
65238;SDS011;51827;51.186;6.926;2022-09-09T02:29:47;3.00;;;1.30;;
65238;SDS011;51827;51.186;6.926;2022-09-09T02:30:50;1.67;;;0.95;;
65238;SDS011;51827;51.186;6.926;2022-09-09T02:31:51;3.38;;;1.00;;
65238;SDS011;51827;51.186;6.926;2022-09-09T02:32:53;2.25;;;1.10;;
65238;SDS011;51827;51.186;6.926;2022-09-09T02:33:57;4.35;;;1.25;;
65238;SDS011;51827;51.186;6.926;2022-09-09T02:35:09;2.92;;;1.00;;
65238;SDS011;51827;51.186;6.926;2022-09-09T02:36:12;3.28;;;1.10;;
65238;SDS011;51827;51.186;6.926;2022-09-09T02:37:16;3.28;;;1.27;;
65238;SDS011;51827;51.186;6.926;2022-09-09T02:38:19;3.17;;;1.23;;
65238;SDS011;51827;51.186;6.926;2022-09-09T02:39:26;2.88;;;1.20;;
65238;SDS011;51827;51.186;6.926;2022-09-09T02:40:26;3.97;;;1.40;;
65238;SDS011;51827;51.186;6.926;2022-09-09T02:41:28;2.85;;;1.15;;
65238;SDS011;51827;51.186;6.926;2022-09-09T02:42:37;3.20;;;1.33;;
65238;SDS011;51827;51.186;6.926;2022-09-09T02:43:45;3.83;;;1.10;;
65238;SDS011;51827;51.186;6.926;2022-09-09T02:44:45;4.87;;;1.20;;
65238;SDS011;51827;51.186;6.926;2022-09-09T02:48:49;3.45;;;1.20;;
65238;SDS011;51827;51.186;6.926;2022-09-09T02:51:10;4.83;;;1.10;;
65238;SDS011;51827;51.186;6.926;2022-09-09T02:52:30;3.13;;;1.00;;
65238;SDS011;51827;51.186;6.926;2022-09-09T02:53:56;3.10;;;1.20;;
65238;SDS011;51827;51.186;6.926;2022-09-09T02:55:06;4.35;;;0.93;;
65238;SDS011;51827;51.186;6.926;2022-09-09T02:56:14;2.88;;;1.10;;
65238;SDS011;51827;51.186;6.926;2022-09-09T02:57:19;3.22;;;0.93;;
65238;SDS011;51827;51.186;6.926;2022-09-09T02:58:21;4.07;;;1.17;;
65238;SDS011;51827;51.186;6.926;2022-09-09T02:59:25;3.65;;;1.20;;
65238;SDS011;51827;51.186;6.926;2022-09-09T03:00:26;3.50;;;1.25;;
65238;SDS011;51827;51.186;6.926;2022-09-09T03:01:27;3.95;;;1.17;;
65238;SDS011;51827;51.186;6.926;2022-09-09T03:02:28;3.30;;;1.10;;
65238;SDS011;51827;51.186;6.926;2022-09-09T03:03:28;4.97;;;1.20;;
65238;SDS011;51827;51.186;6.926;2022-09-09T03:04:31;2.55;;;0.85;;
65238;SDS011;51827;51.186;6.926;2022-09-09T03:05:31;1.88;;;1.15;;
65238;SDS011;51827;51.186;6.926;2022-09-09T03:06:32;2.10;;;1.10;;
65238;SDS011;51827;51.186;6.926;2022-09-09T03:07:37;2.60;;;1.07;;
65238;SDS011;51827;51.186;6.926;2022-09-09T03:08:40;3.00;;;0.90;;
65238;SDS011;51827;51.186;6.926;2022-09-09T03:09:40;2.17;;;1.00;;
65238;SDS011;51827;51.186;6.926;2022-09-09T03:10:40;6.67;;;1.23;;
65238;SDS011;51827;51.186;6.926;2022-09-09T03:11:41;2.15;;;0.80;;
65238;SDS011;51827;51.186;6.926;2022-09-09T03:12:41;3.03;;;1.13;;
65238;SDS011;51827;51.186;6.926;2022-09-09T03:13:41;1.53;;;1.00;;
65238;SDS011;51827;51.186;6.926;2022-09-09T03:14:41;6.43;;;1.10;;
65238;SDS011;51827;51.186;6.926;2022-09-09T03:15:42;2.43;;;0.93;;
65238;SDS011;51827;51.186;6.926;2022-09-09T03:16:42;2.10;;;1.07;;
65238;SDS011;51827;51.186;6.926;2022-09-09T03:17:44;3.40;;;1.00;;
65238;SDS011;51827;51.186;6.926;2022-09-09T03:18:45;2.23;;;0.90;;
65238;SDS011;51827;51.186;6.926;2022-09-09T03:19:45;3.63;;;1.17;;
65238;SDS011;51827;51.186;6.926;2022-09-09T03:20:45;3.30;;;1.13;;
65238;SDS011;51827;51.186;6.926;2022-09-09T03:21:46;1.83;;;0.95;;
65238;SDS011;51827;51.186;6.926;2022-09-09T03:23:47;2.23;;;0.87;;
65238;SDS011;51827;51.186;6.926;2022-09-09T03:24:48;3.73;;;1.37;;
65238;SDS011;51827;51.186;6.926;2022-09-09T03:25:48;1.60;;;0.87;;
65238;SDS011;51827;51.186;6.926;2022-09-09T03:26:49;2.85;;;0.95;;
65238;SDS011;51827;51.186;6.926;2022-09-09T03:27:50;1.58;;;0.90;;
65238;SDS011;51827;51.186;6.926;2022-09-09T03:28:50;3.90;;;0.95;;
65238;SDS011;51827;51.186;6.926;2022-09-09T03:29:58;2.53;;;0.97;;
65238;SDS011;51827;51.186;6.926;2022-09-09T03:31:01;2.83;;;1.20;;
65238;SDS011;51827;51.186;6.926;2022-09-09T03:32:05;4.57;;;1.38;;
65238;SDS011;51827;51.186;6.926;2022-09-09T03:33:06;3.75;;;1.00;;
65238;SDS011;51827;51.186;6.926;2022-09-09T03:34:06;3.57;;;1.13;;
65238;SDS011;51827;51.186;6.926;2022-09-09T03:35:06;2.00;;;0.80;;
65238;SDS011;51827;51.186;6.926;2022-09-09T03:36:07;1.92;;;0.90;;
65238;SDS011;51827;51.186;6.926;2022-09-09T03:37:08;3.58;;;0.88;;
65238;SDS011;51827;51.186;6.926;2022-09-09T03:38:11;2.83;;;1.05;;
65238;SDS011;51827;51.186;6.926;2022-09-09T03:39:11;2.70;;;0.97;;
65238;SDS011;51827;51.186;6.926;2022-09-09T03:40:12;2.63;;;1.02;;
65238;SDS011;51827;51.186;6.926;2022-09-09T03:41:13;2.05;;;1.00;;
65238;SDS011;51827;51.186;6.926;2022-09-09T03:42:14;2.83;;;1.07;;
65238;SDS011;51827;51.186;6.926;2022-09-09T03:43:17;2.40;;;1.08;;
65238;SDS011;51827;51.186;6.926;2022-09-09T03:44:17;3.30;;;0.93;;
65238;SDS011;51827;51.186;6.926;2022-09-09T03:45:18;2.37;;;1.00;;
65238;SDS011;51827;51.186;6.926;2022-09-09T03:46:18;3.50;;;0.80;;
65238;SDS011;51827;51.186;6.926;2022-09-09T03:47:20;8.18;;;1.25;;
65238;SDS011;51827;51.186;6.926;2022-09-09T03:48:21;1.88;;;0.90;;
65238;SDS011;51827;51.186;6.926;2022-09-09T03:49:21;4.80;;;1.17;;
65238;SDS011;51827;51.186;6.926;2022-09-09T03:50:21;4.13;;;1.10;;
65238;SDS011;51827;51.186;6.926;2022-09-09T03:51:21;2.20;;;0.80;;
65238;SDS011;51827;51.186;6.926;2022-09-09T03:52:22;4.20;;;1.00;;
65238;SDS011;51827;51.186;6.926;2022-09-09T03:53:22;1.30;;;0.70;;
65238;SDS011;51827;51.186;6.926;2022-09-09T03:54:24;6.00;;;1.25;;
65238;SDS011;51827;51.186;6.926;2022-09-09T03:55:25;2.42;;;0.90;;
65238;SDS011;51827;51.186;6.926;2022-09-09T03:56:25;1.70;;;0.83;;
65238;SDS011;51827;51.186;6.926;2022-09-09T03:57:25;2.20;;;0.93;;
65238;SDS011;51827;51.186;6.926;2022-09-09T03:58:26;2.27;;;1.00;;
65238;SDS011;51827;51.186;6.926;2022-09-09T03:59:27;4.70;;;1.35;;
65238;SDS011;51827;51.186;6.926;2022-09-09T04:00:27;3.33;;;0.90;;
65238;SDS011;51827;51.186;6.926;2022-09-09T04:01:27;2.13;;;0.90;;
65238;SDS011;51827;51.186;6.926;2022-09-09T04:02:28;4.75;;;1.08;;
65238;SDS011;51827;51.186;6.926;2022-09-09T04:03:28;3.90;;;1.27;;
65238;SDS011;51827;51.186;6.926;2022-09-09T04:04:34;3.17;;;1.20;;
65238;SDS011;51827;51.186;6.926;2022-09-09T04:05:35;3.35;;;1.02;;
65238;SDS011;51827;51.186;6.926;2022-09-09T04:06:35;2.10;;;1.00;;
65238;SDS011;51827;51.186;6.926;2022-09-09T04:07:36;2.57;;;1.00;;
65238;SDS011;51827;51.186;6.926;2022-09-09T04:08:36;4.67;;;1.20;;
65238;SDS011;51827;51.186;6.926;2022-09-09T04:09:36;5.17;;;1.37;;
65238;SDS011;51827;51.186;6.926;2022-09-09T04:10:36;3.33;;;1.10;;
65238;SDS011;51827;51.186;6.926;2022-09-09T04:11:37;5.77;;;1.10;;
65238;SDS011;51827;51.186;6.926;2022-09-09T04:12:37;3.60;;;1.07;;
65238;SDS011;51827;51.186;6.926;2022-09-09T04:13:37;2.33;;;0.90;;
65238;SDS011;51827;51.186;6.926;2022-09-09T04:14:38;4.70;;;1.30;;
65238;SDS011;51827;51.186;6.926;2022-09-09T04:15:38;4.73;;;1.00;;
65238;SDS011;51827;51.186;6.926;2022-09-09T04:16:38;4.73;;;1.13;;
65238;SDS011;51827;51.186;6.926;2022-09-09T04:17:39;2.43;;;1.30;;
65238;SDS011;51827;51.186;6.926;2022-09-09T04:18:39;3.80;;;1.10;;
65238;SDS011;51827;51.186;6.926;2022-09-09T04:19:39;3.80;;;1.20;;
65238;SDS011;51827;51.186;6.926;2022-09-09T04:20:39;3.43;;;1.27;;
65238;SDS011;51827;51.186;6.926;2022-09-09T04:21:40;8.03;;;1.10;;
65238;SDS011;51827;51.186;6.926;2022-09-09T04:22:41;3.63;;;1.17;;
65238;SDS011;51827;51.186;6.926;2022-09-09T04:23:41;3.17;;;1.00;;
65238;SDS011;51827;51.186;6.926;2022-09-09T04:24:41;3.90;;;1.20;;
65238;SDS011;51827;51.186;6.926;2022-09-09T04:25:48;6.43;;;1.10;;
65238;SDS011;51827;51.186;6.926;2022-09-09T04:26:49;1.95;;;1.10;;
65238;SDS011;51827;51.186;6.926;2022-09-09T04:27:53;3.43;;;1.10;;
65238;SDS011;51827;51.186;6.926;2022-09-09T04:28:54;4.82;;;1.20;;
65238;SDS011;51827;51.186;6.926;2022-09-09T04:29:54;3.50;;;0.90;;
65238;SDS011;51827;51.186;6.926;2022-09-09T04:30:55;8.23;;;1.20;;
65238;SDS011;51827;51.186;6.926;2022-09-09T04:31:55;5.33;;;1.10;;
65238;SDS011;51827;51.186;6.926;2022-09-09T04:33:00;4.20;;;1.20;;
65238;SDS011;51827;51.186;6.926;2022-09-09T04:34:01;2.42;;;1.20;;
65238;SDS011;51827;51.186;6.926;2022-09-09T04:35:01;4.07;;;1.37;;
65238;SDS011;51827;51.186;6.926;2022-09-09T04:36:01;6.43;;;1.30;;
65238;SDS011;51827;51.186;6.926;2022-09-09T04:37:02;5.82;;;1.27;;
65238;SDS011;51827;51.186;6.926;2022-09-09T04:38:02;4.10;;;1.20;;
65238;SDS011;51827;51.186;6.926;2022-09-09T04:39:03;4.22;;;1.30;;
65238;SDS011;51827;51.186;6.926;2022-09-09T04:40:03;5.43;;;1.50;;
65238;SDS011;51827;51.186;6.926;2022-09-09T04:41:04;5.03;;;1.30;;
65238;SDS011;51827;51.186;6.926;2022-09-09T04:43:05;5.83;;;1.43;;
65238;SDS011;51827;51.186;6.926;2022-09-09T04:44:05;3.57;;;1.07;;
65238;SDS011;51827;51.186;6.926;2022-09-09T04:45:06;6.13;;;1.50;;
65238;SDS011;51827;51.186;6.926;2022-09-09T04:46:06;4.15;;;1.23;;
65238;SDS011;51827;51.186;6.926;2022-09-09T04:47:06;6.37;;;1.47;;
65238;SDS011;51827;51.186;6.926;2022-09-09T04:48:07;3.87;;;1.40;;
65238;SDS011;51827;51.186;6.926;2022-09-09T04:49:08;7.30;;;1.55;;
65238;SDS011;51827;51.186;6.926;2022-09-09T04:50:08;5.97;;;1.57;;
65238;SDS011;51827;51.186;6.926;2022-09-09T04:51:09;4.10;;;1.48;;
65238;SDS011;51827;51.186;6.926;2022-09-09T04:52:12;6.18;;;1.40;;
65238;SDS011;51827;51.186;6.926;2022-09-09T04:53:12;3.33;;;1.43;;
65238;SDS011;51827;51.186;6.926;2022-09-09T04:54:12;5.77;;;1.50;;
65238;SDS011;51827;51.186;6.926;2022-09-09T04:55:12;11.83;;;2.00;;
65238;SDS011;51827;51.186;6.926;2022-09-09T04:56:14;9.75;;;1.67;;
65238;SDS011;51827;51.186;6.926;2022-09-09T04:57:15;10.27;;;2.20;;
65238;SDS011;51827;51.186;6.926;2022-09-09T04:58:16;6.47;;;1.50;;
65238;SDS011;51827;51.186;6.926;2022-09-09T04:59:16;11.47;;;2.00;;
65238;SDS011;51827;51.186;6.926;2022-09-09T05:00:16;7.27;;;1.90;;
65238;SDS011;51827;51.186;6.926;2022-09-09T05:01:18;11.97;;;1.80;;
65238;SDS011;51827;51.186;6.926;2022-09-09T05:02:19;5.85;;;1.63;;
65238;SDS011;51827;51.186;6.926;2022-09-09T05:03:20;7.80;;;2.00;;
65238;SDS011;51827;51.186;6.926;2022-09-09T05:04:20;8.37;;;1.77;;
65238;SDS011;51827;51.186;6.926;2022-09-09T05:05:21;7.93;;;1.80;;
65238;SDS011;51827;51.186;6.926;2022-09-09T05:06:26;5.53;;;1.65;;
65238;SDS011;51827;51.186;6.926;2022-09-09T05:07:27;4.50;;;1.73;;
65238;SDS011;51827;51.186;6.926;2022-09-09T05:08:27;6.73;;;1.80;;
65238;SDS011;51827;51.186;6.926;2022-09-09T05:09:27;5.17;;;1.40;;
65238;SDS011;51827;51.186;6.926;2022-09-09T05:10:27;6.57;;;1.77;;
65238;SDS011;51827;51.186;6.926;2022-09-09T05:11:29;6.87;;;1.60;;
65238;SDS011;51827;51.186;6.926;2022-09-09T05:12:30;4.88;;;1.48;;
65238;SDS011;51827;51.186;6.926;2022-09-09T05:13:30;8.45;;;1.90;;
65238;SDS011;51827;51.186;6.926;2022-09-09T05:14:31;7.13;;;1.97;;
65238;SDS011;51827;51.186;6.926;2022-09-09T05:15:31;6.93;;;1.77;;
65238;SDS011;51827;51.186;6.926;2022-09-09T05:16:31;6.10;;;2.35;;
65238;SDS011;51827;51.186;6.926;2022-09-09T05:17:32;7.23;;;1.53;;
65238;SDS011;51827;51.186;6.926;2022-09-09T05:18:32;7.27;;;1.87;;
65238;SDS011;51827;51.186;6.926;2022-09-09T05:19:32;10.07;;;1.93;;
65238;SDS011;51827;51.186;6.926;2022-09-09T05:20:32;6.53;;;1.40;;
65238;SDS011;51827;51.186;6.926;2022-09-09T05:21:33;3.77;;;1.43;;
65238;SDS011;51827;51.186;6.926;2022-09-09T05:22:33;6.50;;;1.90;;
65238;SDS011;51827;51.186;6.926;2022-09-09T05:23:34;7.30;;;1.73;;
65238;SDS011;51827;51.186;6.926;2022-09-09T05:24:34;4.55;;;1.60;;
65238;SDS011;51827;51.186;6.926;2022-09-09T05:25:34;7.30;;;1.63;;
65238;SDS011;51827;51.186;6.926;2022-09-09T05:26:35;7.10;;;1.60;;
65238;SDS011;51827;51.186;6.926;2022-09-09T05:27:35;7.00;;;2.03;;
65238;SDS011;51827;51.186;6.926;2022-09-09T05:28:35;7.20;;;1.63;;
65238;SDS011;51827;51.186;6.926;2022-09-09T05:29:36;5.47;;;1.70;;
65238;SDS011;51827;51.186;6.926;2022-09-09T05:30:36;6.50;;;1.57;;
65238;SDS011;51827;51.186;6.926;2022-09-09T05:31:36;7.13;;;1.80;;
65238;SDS011;51827;51.186;6.926;2022-09-09T05:32:36;5.43;;;1.57;;
65238;SDS011;51827;51.186;6.926;2022-09-09T05:33:37;7.93;;;1.80;;
65238;SDS011;51827;51.186;6.926;2022-09-09T05:34:37;6.38;;;1.60;;
65238;SDS011;51827;51.186;6.926;2022-09-09T05:35:37;7.20;;;1.60;;
65238;SDS011;51827;51.186;6.926;2022-09-09T05:36:38;5.27;;;1.40;;
65238;SDS011;51827;51.186;6.926;2022-09-09T05:37:38;5.03;;;1.65;;
65238;SDS011;51827;51.186;6.926;2022-09-09T05:38:41;5.57;;;1.63;;
65238;SDS011;51827;51.186;6.926;2022-09-09T05:39:42;5.28;;;1.40;;
65238;SDS011;51827;51.186;6.926;2022-09-09T05:40:47;3.33;;;1.23;;
65238;SDS011;51827;51.186;6.926;2022-09-09T05:41:47;3.88;;;1.30;;
65238;SDS011;51827;51.186;6.926;2022-09-09T05:42:47;5.90;;;1.50;;
65238;SDS011;51827;51.186;6.926;2022-09-09T05:43:48;5.07;;;1.80;;
65238;SDS011;51827;51.186;6.926;2022-09-09T05:44:48;6.20;;;1.80;;
65238;SDS011;51827;51.186;6.926;2022-09-09T05:45:48;5.23;;;1.50;;
65238;SDS011;51827;51.186;6.926;2022-09-09T05:47:02;4.57;;;1.45;;
65238;SDS011;51827;51.186;6.926;2022-09-09T05:48:02;10.23;;;1.67;;
65238;SDS011;51827;51.186;6.926;2022-09-09T05:49:02;5.47;;;1.50;;
65238;SDS011;51827;51.186;6.926;2022-09-09T05:50:03;4.13;;;1.45;;
65238;SDS011;51827;51.186;6.926;2022-09-09T05:52:05;7.23;;;1.50;;
65238;SDS011;51827;51.186;6.926;2022-09-09T05:53:05;4.33;;;1.43;;
65238;SDS011;51827;51.186;6.926;2022-09-09T05:54:05;5.03;;;1.37;;
65238;SDS011;51827;51.186;6.926;2022-09-09T05:55:06;5.90;;;1.40;;
65238;SDS011;51827;51.186;6.926;2022-09-09T05:56:07;4.35;;;1.27;;
65238;SDS011;51827;51.186;6.926;2022-09-09T05:57:12;4.45;;;1.30;;
65238;SDS011;51827;51.186;6.926;2022-09-09T05:58:13;4.83;;;1.30;;
65238;SDS011;51827;51.186;6.926;2022-09-09T05:59:13;6.72;;;1.52;;
65238;SDS011;51827;51.186;6.926;2022-09-09T06:00:13;2.63;;;1.13;;
65238;SDS011;51827;51.186;6.926;2022-09-09T06:01:18;3.42;;;1.27;;
65238;SDS011;51827;51.186;6.926;2022-09-09T06:03:25;5.87;;;1.60;;
65238;SDS011;51827;51.186;6.926;2022-09-09T06:04:26;6.20;;;1.37;;
65238;SDS011;51827;51.186;6.926;2022-09-09T06:05:26;4.03;;;1.40;;
65238;SDS011;51827;51.186;6.926;2022-09-09T06:06:27;3.57;;;1.03;;
65238;SDS011;51827;51.186;6.926;2022-09-09T06:07:30;3.78;;;1.58;;
65238;SDS011;51827;51.186;6.926;2022-09-09T06:08:34;4.45;;;1.38;;
65238;SDS011;51827;51.186;6.926;2022-09-09T06:09:36;3.10;;;1.30;;
65238;SDS011;51827;51.186;6.926;2022-09-09T06:10:36;3.23;;;1.27;;
65238;SDS011;51827;51.186;6.926;2022-09-09T06:11:37;2.83;;;1.20;;
65238;SDS011;51827;51.186;6.926;2022-09-09T06:12:39;3.58;;;1.40;;
65238;SDS011;51827;51.186;6.926;2022-09-09T06:13:42;5.82;;;1.38;;
65238;SDS011;51827;51.186;6.926;2022-09-09T06:14:43;2.85;;;1.23;;
65238;SDS011;51827;51.186;6.926;2022-09-09T06:15:50;2.83;;;1.33;;
65238;SDS011;51827;51.186;6.926;2022-09-09T06:16:51;2.55;;;1.17;;
65238;SDS011;51827;51.186;6.926;2022-09-09T06:17:55;3.88;;;1.38;;
65238;SDS011;51827;51.186;6.926;2022-09-09T06:18:56;4.40;;;1.38;;
65238;SDS011;51827;51.186;6.926;2022-09-09T06:19:56;4.85;;;1.60;;
65238;SDS011;51827;51.186;6.926;2022-09-09T06:20:57;4.23;;;1.33;;
65238;SDS011;51827;51.186;6.926;2022-09-09T06:21:59;4.15;;;1.30;;
65238;SDS011;51827;51.186;6.926;2022-09-09T06:23:00;3.63;;;1.30;;
65238;SDS011;51827;51.186;6.926;2022-09-09T06:24:00;4.30;;;1.10;;
65238;SDS011;51827;51.186;6.926;2022-09-09T06:25:01;4.05;;;1.40;;
65238;SDS011;51827;51.186;6.926;2022-09-09T06:26:11;3.93;;;1.23;;
65238;SDS011;51827;51.186;6.926;2022-09-09T06:27:17;1.95;;;0.88;;
65238;SDS011;51827;51.186;6.926;2022-09-09T06:28:18;4.37;;;1.30;;
65238;SDS011;51827;51.186;6.926;2022-09-09T06:29:18;3.97;;;1.42;;
65238;SDS011;51827;51.186;6.926;2022-09-09T06:30:18;4.83;;;1.37;;
65238;SDS011;51827;51.186;6.926;2022-09-09T06:31:22;4.20;;;1.30;;
65238;SDS011;51827;51.186;6.926;2022-09-09T06:32:24;2.60;;;1.20;;
65238;SDS011;51827;51.186;6.926;2022-09-09T06:33:30;3.92;;;1.40;;
65238;SDS011;51827;51.186;6.926;2022-09-09T06:34:31;4.22;;;1.30;;
65238;SDS011;51827;51.186;6.926;2022-09-09T06:35:31;3.20;;;1.07;;
65238;SDS011;51827;51.186;6.926;2022-09-09T06:36:32;2.33;;;1.10;;
65238;SDS011;51827;51.186;6.926;2022-09-09T06:37:34;3.22;;;1.30;;
65238;SDS011;51827;51.186;6.926;2022-09-09T06:38:34;3.60;;;1.23;;
65238;SDS011;51827;51.186;6.926;2022-09-09T06:39:34;3.80;;;1.30;;
65238;SDS011;51827;51.186;6.926;2022-09-09T06:40:34;1.77;;;1.03;;
65238;SDS011;51827;51.186;6.926;2022-09-09T06:41:35;3.10;;;1.20;;
65238;SDS011;51827;51.186;6.926;2022-09-09T06:42:35;3.77;;;1.17;;
65238;SDS011;51827;51.186;6.926;2022-09-09T06:43:35;2.77;;;1.33;;
65238;SDS011;51827;51.186;6.926;2022-09-09T06:44:36;4.97;;;1.48;;
65238;SDS011;51827;51.186;6.926;2022-09-09T06:45:36;4.27;;;1.57;;
65238;SDS011;51827;51.186;6.926;2022-09-09T06:46:36;4.67;;;1.17;;
65238;SDS011;51827;51.186;6.926;2022-09-09T06:47:37;3.42;;;1.23;;
65238;SDS011;51827;51.186;6.926;2022-09-09T06:48:40;4.37;;;1.13;;
65238;SDS011;51827;51.186;6.926;2022-09-09T06:49:44;2.58;;;1.20;;
65238;SDS011;51827;51.186;6.926;2022-09-09T06:50:44;3.90;;;1.50;;
65238;SDS011;51827;51.186;6.926;2022-09-09T06:51:44;4.23;;;1.30;;
65238;SDS011;51827;51.186;6.926;2022-09-09T06:52:45;4.33;;;1.20;;
65238;SDS011;51827;51.186;6.926;2022-09-09T06:53:46;3.10;;;1.15;;
65238;SDS011;51827;51.186;6.926;2022-09-09T06:55:47;3.90;;;1.20;;
65238;SDS011;51827;51.186;6.926;2022-09-09T06:56:47;2.23;;;1.03;;
65238;SDS011;51827;51.186;6.926;2022-09-09T06:57:48;5.07;;;1.30;;
65238;SDS011;51827;51.186;6.926;2022-09-09T06:58:49;2.93;;;1.20;;
65238;SDS011;51827;51.186;6.926;2022-09-09T06:59:50;2.88;;;1.20;;
65238;SDS011;51827;51.186;6.926;2022-09-09T07:00:50;3.60;;;1.30;;
65238;SDS011;51827;51.186;6.926;2022-09-09T07:01:51;3.53;;;1.27;;
65238;SDS011;51827;51.186;6.926;2022-09-09T07:02:51;3.17;;;1.27;;
65238;SDS011;51827;51.186;6.926;2022-09-09T07:03:54;4.53;;;1.27;;
65238;SDS011;51827;51.186;6.926;2022-09-09T07:04:55;2.65;;;1.17;;
65238;SDS011;51827;51.186;6.926;2022-09-09T07:05:55;3.93;;;1.20;;
65238;SDS011;51827;51.186;6.926;2022-09-09T07:06:56;2.67;;;1.10;;